createdAt,value
2018-08-03T08:10:07.904Z,31.81
2018-08-03T08:11:06.803Z,31.84
2018-08-03T08:12:59.529Z,31.66
2018-08-03T08:13:59.185Z,31.75
2018-08-03T08:15:57.561Z,31.68
2018-08-03T08:16:55.489Z,31.68
2018-08-03T08:18:48.226Z,31.91
2018-08-03T08:19:48.754Z,31.90
2018-08-03T08:21:41.624Z,31.90
2018-08-03T08:22:41.627Z,31.90
2018-08-03T08:24:40.820Z,31.87
2018-08-03T08:25:38.487Z,31.84
2018-08-03T08:27:28.186Z,31.94
2018-08-03T08:28:28.175Z,31.79
2018-08-03T08:30:21.964Z,31.82
2018-08-03T08:31:21.916Z,31.84
2018-08-03T08:33:14.713Z,31.74
2018-08-03T08:34:14.489Z,31.78
2018-08-03T08:36:07.475Z,31.67
2018-08-03T08:37:07.475Z,31.61
2018-08-03T08:39:00.317Z,31.64
2018-08-03T08:40:00.304Z,31.60
2018-08-03T08:41:53.854Z,31.74
2018-08-03T08:42:53.719Z,31.70
2018-08-03T08:44:46.673Z,31.67
2018-08-03T08:45:46.617Z,31.68
2018-08-03T08:47:39.720Z,31.70
2018-08-03T08:48:39.512Z,31.63
2018-08-03T08:50:32.921Z,31.63
2018-08-03T08:51:32.916Z,31.67
2018-08-03T08:53:25.840Z,31.57
2018-08-03T08:54:25.836Z,31.67
2018-08-03T08:56:18.743Z,31.68
2018-08-03T08:57:18.737Z,31.81
2018-08-03T08:59:11.711Z,31.94
2018-08-03T09:00:11.659Z,31.79
2018-08-03T09:02:04.593Z,31.63
2018-08-03T09:03:04.601Z,31.74
2018-08-03T09:04:57.499Z,31.57
2018-08-03T09:05:58.085Z,31.42
2018-08-03T09:07:50.743Z,31.33
2018-08-03T09:08:50.413Z,31.26
2018-08-03T09:10:43.804Z,31.32
2018-08-03T09:11:43.784Z,31.23
2018-08-03T09:13:37.239Z,31.19
2018-08-03T09:14:37.202Z,31.15
2018-08-03T09:16:30.114Z,31.08
2018-08-03T09:17:30.105Z,31.12
2018-08-03T09:19:23.507Z,31.02
2018-08-03T09:20:23.499Z,30.96
2018-08-03T09:22:16.409Z,30.86
2018-08-03T09:23:16.412Z,30.85
2018-08-03T09:25:09.336Z,30.95
2018-08-03T09:26:09.878Z,30.97
2018-08-03T09:28:02.228Z,31.04
2018-08-03T09:29:02.215Z,31.02
2018-08-03T09:30:55.666Z,30.83
2018-08-03T09:31:55.617Z,30.77
2018-08-03T09:33:49.332Z,30.68
2018-08-03T09:34:48.985Z,30.71
2018-08-03T09:36:41.932Z,30.68
2018-08-03T09:37:41.898Z,30.71
2018-08-03T09:39:36.336Z,30.73
2018-08-03T09:40:35.305Z,30.58
2018-08-03T09:42:28.225Z,30.77
2018-08-03T09:43:28.174Z,30.80
2018-08-03T09:45:21.185Z,30.75
2018-08-03T09:46:21.083Z,30.75
2018-08-03T09:51:24.508Z,30.83
2018-08-03T09:52:24.514Z,30.75
2018-08-03T09:54:17.407Z,30.85
2018-08-03T09:55:17.451Z,30.93
2018-08-03T09:57:10.807Z,30.85
2018-08-03T09:58:10.793Z,30.90
2018-08-03T10:00:03.705Z,30.73
2018-08-03T10:01:03.701Z,30.78
2018-08-03T10:02:57.121Z,30.78
2018-08-03T10:03:57.081Z,30.86
2018-08-03T10:05:50.596Z,31.22
2018-08-03T10:06:50.504Z,31.26
2018-08-03T10:08:43.400Z,31.27
2018-08-03T10:09:43.388Z,31.45
2018-08-03T10:11:36.356Z,31.52
2018-08-03T10:12:36.272Z,31.52
2018-08-03T10:14:29.711Z,31.56
2018-08-03T10:15:29.726Z,31.60
2018-08-03T10:17:22.572Z,31.82
2018-08-03T10:18:22.561Z,31.78
2018-08-03T10:20:15.990Z,31.94
2018-08-03T10:21:15.959Z,32.02
2018-08-03T10:23:08.892Z,32.14
2018-08-03T10:24:08.868Z,32.09
2018-08-03T10:26:02.296Z,32.24
2018-08-03T10:27:02.251Z,32.13
2018-08-03T10:28:55.665Z,32.20
2018-08-03T10:29:55.661Z,32.26
2018-08-03T10:31:49.147Z,32.46
2018-08-03T10:32:49.217Z,32.51
2018-08-03T10:34:42.453Z,32.43
2018-08-03T10:35:42.445Z,32.43
2018-08-03T10:37:35.877Z,32.28
2018-08-03T10:38:35.835Z,32.09
2018-08-03T10:40:29.279Z,31.57
2018-08-03T10:41:29.235Z,31.54
2018-08-03T10:43:22.148Z,31.37
2018-08-03T10:44:22.139Z,31.59
2018-08-03T10:46:15.046Z,31.75
2018-08-03T10:47:15.092Z,31.78
2018-08-03T10:49:08.446Z,32.16
2018-08-03T10:50:08.424Z,32.27
2018-08-03T10:52:01.851Z,32.48
2018-08-03T10:53:01.839Z,32.51
2018-08-03T10:54:54.751Z,32.76
2018-08-03T10:55:54.737Z,32.83
2018-08-03T10:57:48.215Z,32.91
2018-08-03T10:58:47.637Z,32.90
2018-08-03T11:01:32.720Z,32.77
2018-08-03T11:02:32.668Z,32.63
2018-08-03T11:04:25.583Z,32.43
2018-08-03T11:05:25.568Z,32.48
2018-08-03T11:07:19.390Z,32.39
2018-08-03T11:08:19.306Z,32.45
2018-08-03T11:10:12.189Z,32.32
2018-08-03T11:11:12.411Z,32.42
2018-08-03T11:13:05.136Z,32.58
2018-08-03T11:14:04.911Z,32.80
2018-08-03T11:15:57.976Z,32.95
2018-08-03T11:16:57.710Z,33.01
2018-08-03T11:18:50.684Z,33.10
2018-08-03T11:19:50.908Z,33.16
2018-08-03T11:21:44.341Z,33.12
2018-08-03T11:22:44.320Z,33.29
2018-08-03T11:24:37.220Z,33.36
2018-08-03T11:25:37.260Z,33.39
2018-08-03T11:27:31.239Z,33.52
2018-08-03T11:28:30.696Z,33.35
2018-08-03T11:30:25.092Z,33.42
2018-08-03T11:31:24.819Z,33.39
2018-08-03T11:33:18.211Z,33.44
2018-08-03T11:34:18.567Z,33.36
2018-08-03T11:36:12.066Z,33.32
2018-08-03T11:37:11.530Z,33.20
2018-08-03T11:39:04.488Z,32.94
2018-08-03T11:40:04.602Z,32.87
2018-08-03T11:41:57.837Z,32.92
2018-08-03T11:42:57.837Z,32.94
2018-08-03T11:44:51.154Z,32.43
2018-08-03T11:45:50.809Z,32.26
2018-08-03T11:47:44.200Z,31.68
2018-08-03T11:48:44.138Z,31.60
2018-08-03T11:50:40.986Z,31.46
2018-08-03T11:51:37.881Z,31.78
2018-08-03T11:53:30.603Z,32.01
2018-08-03T11:54:30.414Z,32.14
2018-08-03T11:56:24.163Z,32.23
2018-08-03T11:57:23.866Z,32.16
2018-08-03T11:59:17.131Z,32.28
2018-08-03T12:00:16.715Z,32.28
2018-08-03T12:02:10.265Z,32.48
2018-08-03T12:06:08.072Z,32.95
2018-08-03T12:08:01.248Z,33.41
2018-08-03T12:09:01.216Z,33.49
2018-08-03T12:10:54.624Z,33.57
2018-08-03T12:11:54.604Z,33.69
2018-08-03T12:13:48.164Z,33.63
2018-08-03T12:14:47.997Z,33.39
2018-08-03T12:16:40.919Z,33.30
2018-08-03T12:17:40.903Z,33.35
2018-08-03T12:19:34.342Z,33.35
2018-08-03T12:20:34.597Z,33.30
2018-08-03T12:22:28.051Z,33.32
2018-08-03T12:23:27.717Z,33.33
2018-08-03T12:25:21.374Z,33.27
2018-08-03T12:26:21.105Z,33.30
2018-08-03T12:28:14.159Z,33.39
2018-08-03T12:29:14.028Z,33.45
2018-08-03T12:31:07.721Z,33.35
2018-08-03T12:32:06.924Z,33.44
2018-08-03T12:34:00.606Z,33.36
2018-08-03T12:35:00.311Z,33.39
2018-08-03T12:36:53.383Z,33.24
2018-08-03T12:37:53.204Z,33.07
2018-08-03T12:39:46.606Z,32.88
2018-08-03T12:40:46.843Z,32.80
2018-08-03T12:42:40.218Z,32.90
2018-08-03T12:43:41.091Z,33.01
2018-08-03T12:45:34.279Z,32.69
2018-08-03T12:46:32.888Z,32.58
2018-08-03T12:48:26.340Z,32.48
2018-08-03T12:49:26.861Z,32.79
2018-08-03T12:51:19.687Z,33.41
2018-08-03T12:52:19.693Z,33.57
2018-08-03T12:54:12.909Z,33.79
2018-08-03T12:55:12.602Z,33.86
2018-08-03T12:57:08.818Z,33.95
2018-08-03T12:58:08.472Z,33.97
2018-08-03T13:00:02.803Z,33.88
2018-08-03T13:01:01.882Z,33.74
2018-08-03T13:02:55.608Z,33.39
2018-08-03T13:03:54.788Z,33.37
2018-08-03T13:05:48.506Z,33.82
2018-08-03T13:06:48.197Z,34.13
2018-08-03T13:08:41.487Z,34.15
2018-08-03T13:09:41.061Z,34.23
2018-08-03T13:11:35.185Z,33.93
2018-08-03T13:12:35.220Z,33.78
2018-08-03T13:14:29.191Z,33.95
2018-08-03T13:15:28.510Z,34.04
2018-08-03T13:17:21.979Z,34.00
2018-08-03T13:18:21.950Z,33.93
2018-08-03T13:20:14.882Z,34.11
2018-08-03T13:21:14.560Z,34.18
2018-08-03T13:23:08.876Z,34.23
2018-08-03T13:24:08.373Z,34.34
2018-08-03T13:26:01.744Z,34.22
2018-08-03T13:27:01.710Z,34.16
2018-08-03T13:28:54.526Z,34.30
2018-08-03T13:29:54.579Z,34.32
2018-08-03T13:31:47.981Z,34.55
2018-08-03T13:32:47.638Z,34.55
2018-08-03T13:34:41.071Z,34.50
2018-08-03T13:35:41.040Z,34.59
2018-08-03T13:37:34.467Z,34.52
2018-08-03T13:38:34.436Z,34.56
2018-08-03T13:40:27.853Z,34.29
2018-08-03T13:41:27.838Z,34.29
2018-08-03T13:43:21.051Z,34.25
2018-08-03T13:44:20.774Z,34.16
2018-08-03T13:46:15.181Z,34.07
2018-08-03T13:47:15.138Z,34.07
2018-08-03T13:49:08.188Z,33.79
2018-08-03T13:50:08.065Z,33.62
2018-08-03T13:52:02.021Z,33.66
2018-08-03T13:53:02.274Z,33.57
2018-08-03T13:54:55.432Z,33.03
2018-08-03T13:55:55.402Z,32.77
2018-08-03T13:57:48.483Z,32.70
2018-08-03T13:58:48.317Z,32.58
2018-08-03T14:00:42.694Z,33.13
2018-08-03T14:01:41.687Z,33.57
2018-08-03T14:03:35.404Z,33.67
2018-08-03T14:04:35.352Z,33.63
2018-08-03T14:06:28.508Z,33.63
2018-08-03T14:07:28.505Z,33.74
2018-08-03T14:09:22.050Z,33.86
2018-08-03T14:10:21.895Z,33.93
2018-08-03T14:12:15.556Z,34.30
2018-08-03T14:13:15.292Z,34.53
2018-08-03T14:15:08.215Z,34.59
2018-08-03T14:16:08.224Z,34.60
2018-08-03T14:18:01.426Z,34.73
2018-08-03T14:19:01.459Z,34.76
2018-08-03T14:20:54.717Z,34.80
2018-08-03T14:21:55.060Z,34.79
2018-08-03T14:23:47.376Z,34.80
2018-08-03T14:24:47.281Z,34.78
2018-08-03T14:26:43.613Z,34.56
2018-08-03T14:27:40.885Z,34.53
2018-08-03T14:29:34.133Z,34.40
2018-08-03T14:30:34.187Z,34.37
2018-08-03T14:32:27.778Z,34.53
2018-08-03T14:33:27.511Z,34.53
2018-08-03T14:35:22.949Z,34.78
2018-08-03T14:36:22.448Z,34.45
2018-08-03T14:38:14.960Z,34.15
2018-08-03T14:39:14.892Z,34.03
2018-08-03T14:41:07.969Z,33.91
2018-08-03T14:42:07.839Z,33.86
2018-08-03T14:44:01.411Z,34.00
2018-08-03T14:45:01.206Z,34.22
2018-08-03T14:46:54.630Z,34.79
2018-08-03T14:47:54.617Z,34.92
2018-08-03T14:49:47.565Z,35.07
2018-08-03T14:50:47.714Z,35.04
2018-08-03T14:52:41.007Z,35.05
2018-08-03T14:53:40.918Z,35.04
2018-08-03T14:55:34.332Z,35.05
2018-08-03T14:56:34.323Z,35.04
2018-08-03T14:58:27.873Z,34.87
2018-08-03T14:59:27.744Z,34.76
2018-08-03T15:01:21.146Z,34.75
2018-08-03T15:02:21.667Z,34.70
2018-08-03T15:04:15.118Z,34.72
2018-08-03T15:05:14.029Z,34.72
2018-08-03T15:07:06.956Z,34.37
2018-08-03T15:08:07.029Z,34.28
2018-08-03T15:13:10.892Z,34.37
2018-08-03T15:14:11.042Z,34.40
2018-08-03T15:16:04.385Z,34.72
2018-08-03T15:17:04.261Z,34.75
2018-08-03T15:18:57.316Z,34.76
2018-08-03T15:19:57.161Z,34.66
2018-08-03T15:21:51.605Z,34.70
2018-08-03T15:22:51.553Z,34.63
2018-08-03T15:24:44.538Z,34.48
2018-08-03T15:25:44.453Z,34.47
2018-08-03T15:27:38.586Z,34.22
2018-08-03T15:28:38.436Z,34.07
2018-08-03T15:30:31.987Z,33.84
2018-08-03T15:31:31.826Z,33.62
2018-08-03T15:33:24.743Z,33.19
2018-08-03T15:34:24.742Z,33.24
2018-08-03T15:36:18.124Z,33.48
2018-08-03T15:37:18.124Z,33.66
2018-08-03T15:39:11.594Z,33.55
2018-08-03T15:40:11.535Z,33.60
2018-08-03T15:42:04.452Z,33.60
2018-08-03T15:43:04.622Z,33.76
2018-08-03T15:44:57.387Z,33.86
2018-08-03T15:45:57.400Z,34.03
2018-08-03T15:47:50.238Z,34.03
2018-08-03T15:48:50.251Z,34.08
2018-08-03T15:50:44.177Z,33.67
2018-08-03T15:51:43.620Z,33.70
2018-08-03T15:53:36.532Z,33.81
2018-08-03T15:54:36.538Z,33.63
2018-08-03T15:56:29.434Z,33.91
2018-08-03T15:57:29.431Z,33.91
2018-08-03T15:59:22.892Z,33.88
2018-08-03T16:00:22.327Z,33.88
2018-08-03T16:02:15.744Z,33.97
2018-08-03T16:03:15.730Z,34.00
2018-08-03T16:05:08.706Z,34.03
2018-08-03T16:06:08.646Z,33.85
2018-08-03T16:08:01.569Z,33.82
2018-08-03T16:09:01.559Z,33.97
2018-08-03T16:10:55.080Z,33.97
2018-08-03T16:11:54.969Z,34.16
2018-08-03T16:13:48.580Z,34.34
2018-08-03T16:14:48.371Z,34.38
2018-08-03T16:16:42.010Z,34.44
2018-08-03T16:17:41.759Z,34.53
2018-08-03T16:19:35.308Z,34.52
2018-08-03T16:20:35.178Z,34.57
2018-08-03T16:22:28.792Z,34.45
2018-08-03T16:23:28.542Z,34.60
2018-08-03T16:25:21.950Z,34.66
2018-08-03T16:26:21.932Z,34.73
2018-08-03T16:28:14.842Z,34.52
2018-08-03T16:29:14.825Z,34.38
2018-08-03T16:31:07.889Z,34.22
2018-08-03T16:32:07.742Z,34.07
2018-08-03T16:34:01.266Z,33.86
2018-08-03T16:35:01.126Z,33.92
2018-08-03T16:36:54.652Z,33.97
2018-08-03T16:37:54.516Z,34.08
2018-08-03T16:39:48.053Z,34.15
2018-08-03T16:40:47.910Z,34.26
2018-08-03T16:42:41.543Z,34.32
2018-08-03T16:43:41.307Z,34.34
2018-08-03T16:45:34.278Z,34.26
2018-08-03T16:46:34.233Z,34.38
2018-08-03T16:48:27.133Z,34.62
2018-08-03T16:49:27.114Z,34.48
2018-08-03T16:51:20.535Z,33.93
2018-08-03T16:52:21.069Z,33.71
2018-08-03T16:54:13.915Z,33.55
2018-08-03T16:55:13.902Z,33.45
2018-08-03T16:57:06.804Z,33.47
2018-08-03T16:58:06.800Z,33.52
2018-08-03T16:59:59.919Z,33.41
2018-08-03T17:00:59.803Z,33.20
2018-08-03T17:02:52.800Z,32.90
2018-08-03T17:03:52.717Z,32.87
2018-08-03T17:05:47.209Z,32.68
2018-08-03T17:06:46.101Z,32.57
2018-08-03T17:08:39.639Z,32.68
2018-08-03T17:09:39.488Z,32.70
2018-08-03T17:11:32.399Z,32.65
2018-08-03T17:12:32.392Z,32.48
2018-08-03T17:14:25.791Z,32.48
2018-08-03T17:15:25.785Z,32.45
2018-08-03T17:17:19.232Z,32.11
2018-08-03T17:18:19.181Z,32.20
2018-08-03T17:20:12.622Z,32.20
2018-08-03T17:21:12.582Z,32.08
2018-08-03T17:23:05.990Z,32.01
2018-08-03T17:24:05.966Z,31.97
2018-08-03T17:25:58.939Z,32.19
2018-08-03T17:26:58.871Z,32.17
2018-08-03T17:28:53.288Z,32.39
2018-08-03T17:29:53.288Z,32.48
2018-08-03T17:31:46.190Z,32.61
2018-08-03T17:32:46.172Z,32.42
2018-08-03T17:34:39.816Z,32.79
2018-08-03T17:35:39.569Z,32.90
2018-08-03T17:37:32.985Z,32.95
2018-08-03T17:38:33.508Z,33.10
2018-08-03T17:40:26.961Z,33.04
2018-08-03T17:41:26.372Z,33.03
2018-08-03T17:43:19.639Z,33.03
2018-08-03T17:44:19.324Z,32.85
2018-08-03T17:46:12.264Z,32.58
2018-08-03T17:47:12.217Z,32.45
2018-08-03T17:49:06.105Z,32.43
2018-08-03T17:50:05.611Z,32.38
2018-08-03T17:51:58.606Z,32.50
2018-08-03T17:52:58.498Z,32.45
2018-08-03T17:54:51.575Z,32.42
2018-08-03T17:55:51.401Z,32.46
2018-08-03T17:57:44.811Z,32.73
2018-08-03T17:58:44.786Z,32.55
2018-08-03T18:00:37.708Z,32.70
2018-08-03T18:01:37.692Z,32.55
2018-08-03T18:03:31.229Z,32.53
2018-08-03T18:04:31.083Z,32.63
2018-08-03T18:06:24.021Z,32.58
2018-08-03T18:07:24.006Z,32.64
2018-08-03T18:09:17.480Z,32.46
2018-08-03T18:10:17.406Z,32.32
2018-08-03T18:12:10.973Z,32.27
2018-08-03T18:13:10.801Z,32.27
2018-08-03T18:15:03.854Z,32.01
2018-08-03T18:16:03.707Z,31.99
2018-08-03T18:17:59.499Z,31.79
2018-08-03T18:18:57.651Z,31.81
2018-08-03T18:20:51.155Z,31.60
2018-08-03T18:21:51.653Z,31.64
2018-08-03T18:23:44.429Z,31.52
2018-08-03T18:24:44.427Z,31.46
2018-08-03T18:26:37.626Z,31.48
2018-08-03T18:27:37.347Z,31.56
2018-08-03T18:29:30.740Z,31.56
2018-08-03T18:30:30.724Z,31.60
2018-08-03T18:32:25.140Z,31.57
2018-08-03T18:33:25.116Z,31.45
2018-08-03T18:35:19.567Z,31.39
2018-08-03T18:36:19.500Z,31.41
2018-08-03T18:38:13.715Z,31.45
2018-08-03T18:39:13.473Z,31.38
2018-08-03T18:41:06.936Z,31.33
2018-08-03T18:42:06.921Z,31.33
2018-08-03T18:43:59.934Z,31.33
2018-08-03T18:44:59.927Z,31.34
2018-08-03T18:46:53.356Z,31.32
2018-08-03T18:47:53.626Z,31.29
2018-08-03T18:49:47.117Z,31.22
2018-08-03T18:50:46.855Z,31.10
2018-08-03T18:52:41.418Z,31.17
2018-08-03T18:53:39.175Z,31.19
2018-08-03T18:55:32.243Z,31.19
2018-08-03T18:56:32.066Z,31.17
2018-08-03T18:58:25.782Z,31.10
2018-08-03T18:59:25.450Z,31.08
2018-08-03T19:01:19.080Z,31.08
2018-08-03T19:02:18.802Z,31.02
2018-08-03T19:04:11.958Z,30.97
2018-08-03T19:05:11.749Z,30.99
2018-08-03T19:07:05.986Z,30.89
2018-08-03T19:08:05.101Z,30.93
2018-08-03T19:09:58.523Z,30.90
2018-08-03T19:10:58.503Z,30.89
2018-08-03T19:12:55.657Z,30.90
2018-08-03T19:13:52.448Z,30.85
2018-08-03T19:15:46.412Z,30.83
2018-08-03T19:16:45.824Z,30.88
2018-08-03T19:18:40.281Z,30.90
2018-08-03T19:19:40.246Z,30.83
2018-08-03T19:21:33.631Z,30.89
2018-08-03T19:22:33.607Z,30.78
2018-08-03T19:24:26.787Z,30.75
2018-08-03T19:25:26.528Z,30.74
2018-08-03T19:27:19.680Z,30.74
2018-08-03T19:28:19.387Z,30.77
2018-08-03T19:30:12.314Z,30.73
2018-08-03T19:31:12.304Z,30.68
2018-08-03T19:33:05.965Z,30.70
2018-08-03T19:34:06.735Z,30.71
2018-08-03T19:35:58.712Z,30.62
2018-08-03T19:36:58.706Z,30.67
2018-08-03T19:38:52.372Z,30.62
2018-08-03T19:39:52.080Z,30.62
2018-08-03T19:41:45.696Z,30.58
2018-08-03T19:42:45.455Z,30.58
2018-08-03T19:44:38.914Z,30.40
2018-08-03T19:45:38.833Z,30.55
2018-08-03T19:47:32.480Z,30.56
2018-08-03T19:48:32.233Z,30.51
2018-08-03T19:50:26.925Z,30.56
2018-08-03T19:51:26.651Z,30.53
2018-08-03T19:53:20.218Z,30.56
2018-08-03T19:54:20.030Z,30.55
2018-08-03T19:56:13.981Z,30.58
2018-08-03T19:57:13.966Z,30.40
2018-08-03T19:59:07.543Z,30.49
2018-08-03T20:00:07.346Z,30.48
2018-08-03T20:02:00.580Z,30.45
2018-08-03T20:03:00.237Z,30.35
2018-08-03T20:04:54.428Z,30.53
2018-08-03T20:05:53.635Z,30.30
2018-08-03T20:07:47.354Z,30.35
2018-08-03T20:08:47.298Z,30.36
2018-08-03T20:10:41.021Z,30.33
2018-08-03T20:11:40.978Z,30.29
2018-08-03T20:13:34.795Z,30.33
2018-08-03T20:14:34.418Z,30.26
2018-08-03T20:16:28.104Z,30.17
2018-08-03T20:17:27.775Z,30.18
2018-08-03T20:19:21.491Z,30.14
2018-08-03T20:20:21.720Z,30.08
2018-08-03T20:22:14.892Z,30.13
2018-08-03T20:23:14.536Z,30.08
2018-08-03T20:25:08.301Z,29.96
2018-08-03T20:26:07.975Z,29.99
2018-08-03T20:28:01.157Z,29.96
2018-08-03T20:29:01.669Z,29.91
2018-08-03T20:30:54.318Z,29.92
2018-08-03T20:31:56.660Z,29.98
2018-08-03T20:33:48.953Z,29.80
2018-08-03T20:34:47.281Z,29.89
2018-08-03T20:36:40.888Z,29.83
2018-08-03T20:37:40.533Z,29.71
2018-08-03T20:39:34.190Z,29.76
2018-08-03T20:40:34.463Z,29.66
2018-08-03T20:42:27.576Z,29.74
2018-08-03T20:43:27.315Z,29.61
2018-08-03T20:45:20.958Z,29.63
2018-08-03T20:46:20.704Z,29.56
2018-08-03T20:48:15.899Z,29.50
2018-08-03T20:49:16.973Z,29.39
2018-08-03T20:51:07.721Z,29.41
2018-08-03T20:52:07.493Z,29.34
2018-08-03T20:54:03.490Z,29.37
2018-08-03T20:55:03.636Z,29.28
2018-08-03T20:56:56.657Z,29.21
2018-08-03T20:57:56.585Z,29.24
2018-08-03T20:59:50.115Z,29.17
2018-08-03T21:00:49.938Z,29.17
2018-08-03T21:02:45.629Z,29.17
2018-08-03T21:03:43.423Z,29.03
2018-08-03T21:05:36.780Z,29.12
2018-08-03T21:06:36.457Z,29.03
2018-08-03T21:08:29.679Z,29.07
2018-08-03T21:09:29.602Z,28.94
2018-08-03T21:11:22.329Z,28.96
2018-08-03T21:12:23.142Z,28.87
2018-08-03T21:14:16.704Z,28.86
2018-08-03T21:15:15.648Z,28.69
2018-08-03T21:17:10.067Z,28.69
2018-08-03T21:18:10.037Z,28.68
2018-08-03T21:20:03.734Z,28.65
2018-08-03T21:21:03.771Z,28.68
2018-08-03T21:22:56.643Z,28.54
2018-08-03T21:23:56.926Z,28.57
2018-08-03T21:25:50.015Z,28.53
2018-08-03T21:26:49.722Z,28.47
2018-08-03T21:28:43.520Z,28.49
2018-08-03T21:29:42.637Z,28.59
2018-08-03T21:31:35.778Z,28.40
2018-08-03T21:32:35.541Z,28.44
2018-08-03T21:34:29.234Z,28.38
2018-08-03T21:35:28.397Z,28.32
2018-08-03T21:37:21.595Z,28.34
2018-08-03T21:38:21.330Z,28.25
2018-08-03T21:40:14.478Z,28.20
2018-08-03T21:41:14.193Z,28.24
2018-08-03T21:43:07.118Z,28.16
2018-08-03T21:44:07.634Z,28.13
2018-08-03T21:46:00.816Z,28.13
2018-08-03T21:47:00.827Z,28.03
2018-08-03T21:48:55.176Z,27.98
2018-08-03T21:49:55.517Z,28.09
2018-08-03T21:51:48.112Z,28.13
2018-08-03T21:52:47.838Z,28.07
2018-08-03T21:54:41.509Z,28.06
2018-08-03T21:55:41.184Z,28.01
2018-08-03T21:57:34.498Z,28.05
2018-08-03T21:58:34.198Z,28.06
2018-08-03T22:00:27.921Z,28.05
2018-08-03T22:01:28.168Z,28.06
2018-08-03T22:03:20.849Z,28.09
2018-08-03T22:04:20.778Z,28.13
2018-08-03T22:06:13.706Z,28.10
2018-08-03T22:07:13.686Z,28.05
2018-08-03T22:09:07.700Z,28.01
2018-08-03T22:10:07.081Z,28.03
2018-08-03T22:12:00.602Z,28.03
2018-08-03T22:13:00.204Z,28.01
2018-08-03T22:14:54.426Z,28.06
2018-08-03T22:15:54.493Z,28.00
2018-08-03T22:17:46.515Z,28.09
2018-08-03T22:18:46.528Z,28.07
2018-08-03T22:20:40.447Z,28.03
2018-08-03T22:21:39.896Z,28.00
2018-08-03T22:23:33.527Z,28.01
2018-08-03T22:24:33.384Z,28.05
2018-08-03T22:26:26.842Z,27.98
2018-08-03T22:27:26.676Z,27.97
2018-08-03T22:29:20.392Z,27.91
2018-08-03T22:30:20.092Z,27.94
2018-08-03T22:32:14.480Z,27.91
2018-08-03T22:33:15.324Z,27.88
2018-08-03T22:35:08.767Z,27.90
2018-08-03T22:36:07.844Z,27.87
2018-08-03T22:38:01.531Z,27.90
2018-08-03T22:39:01.260Z,27.87
2018-08-03T22:40:54.472Z,27.83
2018-08-03T22:41:54.457Z,27.87
2018-08-03T22:43:47.822Z,27.90
2018-08-03T22:44:47.860Z,27.78
2018-08-03T22:46:41.250Z,27.76
2018-08-03T22:47:41.035Z,27.72
2018-08-03T22:49:34.628Z,27.68
2018-08-03T22:50:34.340Z,27.64
2018-08-03T22:52:33.128Z,27.64
2018-08-03T22:53:27.717Z,27.58
2018-08-03T22:55:21.961Z,27.61
2018-08-03T22:56:21.090Z,27.53
2018-08-03T22:58:15.372Z,27.53
2018-08-03T22:59:14.463Z,27.58
2018-08-03T23:01:12.916Z,27.52
2018-08-03T23:02:12.404Z,27.50
2018-08-03T23:04:06.101Z,27.37
2018-08-03T23:05:05.775Z,27.40
2018-08-03T23:06:59.989Z,27.37
2018-08-03T23:07:59.437Z,27.34
2018-08-03T23:09:53.109Z,27.23
2018-08-03T23:10:52.317Z,27.22
2018-08-03T23:12:45.807Z,27.25
2018-08-03T23:13:45.821Z,27.17
2018-08-03T23:15:39.177Z,27.23
2018-08-03T23:16:38.847Z,27.10
2018-08-03T23:18:32.565Z,27.13
2018-08-03T23:19:32.233Z,27.15
2018-08-03T23:21:25.947Z,27.16
2018-08-03T23:22:25.615Z,27.15
2018-08-03T23:24:19.405Z,27.05
2018-08-03T23:25:19.016Z,27.01
2018-08-03T23:27:11.914Z,27.03
2018-08-03T23:28:12.206Z,26.97
2018-08-03T23:30:05.682Z,26.97
2018-08-03T23:31:05.103Z,26.85
2018-08-03T23:33:00.100Z,26.79
2018-08-03T23:33:59.508Z,26.76
2018-08-03T23:35:52.866Z,26.70
2018-08-03T23:36:52.565Z,26.60
2018-08-03T23:38:47.314Z,26.63
2018-08-03T23:39:45.957Z,26.67
2018-08-03T23:41:40.453Z,26.58
2018-08-03T23:42:39.652Z,26.64
2018-08-03T23:44:36.772Z,26.63
2018-08-03T23:45:35.492Z,26.39
2018-08-03T23:47:28.130Z,26.45
2018-08-03T23:48:28.112Z,26.43
2018-08-03T23:50:21.327Z,26.56
2018-08-03T23:51:21.276Z,26.43
2018-08-03T23:53:14.697Z,26.38
2018-08-03T23:54:14.683Z,26.45
2018-08-03T23:56:08.674Z,26.51
2018-08-03T23:57:08.037Z,26.38
2018-08-03T23:59:01.531Z,26.42
